createdAt,value
2018-12-03T00:02:23.121Z,95599.11
2018-12-03T00:04:50.435Z,95596.39
2018-12-03T00:07:17.738Z,95598.30
2018-12-03T00:09:45.050Z,95593.43
2018-12-03T00:12:12.280Z,95596.03
2018-12-03T00:14:39.490Z,95588.22
2018-12-03T00:17:06.837Z,95594.16
2018-12-03T00:19:34.108Z,95592.62
2018-12-03T00:22:01.344Z,95588.00
2018-12-03T00:24:28.663Z,95601.02
2018-12-03T00:26:55.974Z,95596.27
2018-12-03T00:29:23.243Z,95595.92
2018-12-03T00:31:50.901Z,95587.53
2018-12-03T00:34:18.112Z,95583.73
2018-12-03T00:36:45.392Z,95595.95
2018-12-03T00:39:12.662Z,95589.78
2018-12-03T00:41:39.911Z,95594.39
2018-12-03T00:44:07.172Z,95593.20
2018-12-03T00:46:34.397Z,95597.45
2018-12-03T00:49:01.679Z,95605.04
2018-12-03T00:51:28.878Z,95593.66
2018-12-03T00:53:56.112Z,95588.22
2018-12-03T00:56:23.627Z,95600.30
2018-12-03T00:58:50.904Z,95600.90
2018-12-03T01:01:18.180Z,95600.78
2018-12-03T01:03:46.776Z,95599.70
2018-12-03T01:06:14.060Z,95606.66
2018-12-03T01:08:41.362Z,95610.00
2018-12-03T01:11:08.663Z,95605.48
2018-12-03T01:13:35.966Z,95613.99
2018-12-03T01:16:03.332Z,95611.16
2018-12-03T01:18:30.563Z,95614.34
2018-12-03T01:20:57.847Z,95624.88
2018-12-03T01:23:25.131Z,95625.92
2018-12-03T01:25:52.482Z,95615.36
2018-12-03T01:28:19.724Z,95618.08
2018-12-03T01:30:47.008Z,95627.78
2018-12-03T01:33:14.248Z,95619.47
2018-12-03T01:35:41.454Z,95615.36
2018-12-03T01:38:08.793Z,95613.70
2018-12-03T01:40:36.007Z,95609.19
2018-12-03T01:43:03.318Z,95612.84
2018-12-03T01:45:30.532Z,95612.60
2018-12-03T01:47:57.798Z,95614.14
2018-12-03T01:50:25.015Z,95611.15
2018-12-03T01:52:52.293Z,95617.52
2018-12-03T01:55:19.593Z,95616.79
2018-12-03T01:57:46.922Z,95614.19
2018-12-03T02:00:15.162Z,95614.30
2018-12-03T02:02:43.003Z,95603.75
2018-12-03T02:05:10.360Z,95602.30
2018-12-03T02:07:37.729Z,95595.35
2018-12-03T02:10:07.848Z,95608.81
2018-12-03T02:12:35.062Z,95604.28
2018-12-03T02:15:02.413Z,95595.96
2018-12-03T02:17:29.617Z,95604.17
2018-12-03T02:19:56.870Z,95609.54
2018-12-03T02:22:24.149Z,95598.73
2018-12-03T02:24:51.376Z,95600.88
2018-12-03T02:27:18.662Z,95608.58
2018-12-03T02:29:45.894Z,95608.58
2018-12-03T02:32:13.157Z,95613.06
2018-12-03T02:34:40.447Z,95603.44
2018-12-03T02:37:07.752Z,95608.58
2018-12-03T02:39:35.030Z,95605.48
2018-12-03T02:42:02.310Z,95609.54
2018-12-03T02:44:29.645Z,95619.13
2018-12-03T02:46:56.947Z,95622.31
2018-12-03T02:49:27.299Z,95613.88
2018-12-03T02:51:54.630Z,95613.41
2018-12-03T02:54:21.942Z,95613.41
2018-12-03T02:56:49.250Z,95613.29
2018-12-03T02:59:16.524Z,95606.28
2018-12-03T03:01:43.764Z,95609.27
2018-12-03T03:04:11.058Z,95605.52
2018-12-03T03:06:38.328Z,95604.67
2018-12-03T03:09:08.846Z,95573.84
2018-12-03T03:11:36.105Z,95600.98
2018-12-03T03:14:03.414Z,95611.30
2018-12-03T03:16:30.636Z,95605.74
2018-12-03T03:18:57.890Z,95617.59
2018-12-03T03:21:25.172Z,95625.41
2018-12-03T03:23:56.900Z,95620.31
2018-12-03T03:26:24.162Z,95620.66
2018-12-03T03:28:52.867Z,95610.58
2018-12-03T03:31:20.099Z,95607.62
2018-12-03T03:33:47.406Z,95609.16
2018-12-03T03:36:14.894Z,95606.39
2018-12-03T03:38:42.347Z,95614.83
2018-12-03T03:41:09.828Z,95632.05
2018-12-03T03:43:37.291Z,95625.53
2018-12-03T03:46:04.751Z,95617.55
2018-12-03T03:48:32.219Z,95613.84
2018-12-03T03:50:59.509Z,95630.55
2018-12-03T03:53:27.105Z,95637.30
2018-12-03T03:55:54.560Z,95644.55
2018-12-03T03:58:22.033Z,95632.23
2018-12-03T04:00:49.469Z,95630.59
2018-12-03T04:03:16.966Z,95624.19
2018-12-03T04:05:44.436Z,95569.62
2018-12-03T04:08:11.810Z,95624.22
2018-12-03T04:10:39.345Z,95617.01
2018-12-03T04:13:06.785Z,95615.56
2018-12-03T04:15:34.366Z,95619.84
2018-12-03T04:18:01.821Z,95621.98
2018-12-03T04:20:29.373Z,95625.20
2018-12-03T04:22:59.643Z,95611.56
2018-12-03T04:25:27.092Z,95611.56
2018-12-03T04:27:55.618Z,95613.91
2018-12-03T04:30:28.119Z,95609.45
2018-12-03T04:32:55.516Z,95605.39
2018-12-03T04:35:24.231Z,95605.89
2018-12-03T04:37:51.697Z,95605.63
2018-12-03T04:40:19.190Z,95609.53
2018-12-03T04:42:46.670Z,95599.22
2018-12-03T04:45:15.218Z,95609.08
2018-12-03T04:47:42.639Z,95609.77
2018-12-03T04:50:12.032Z,95601.83
2018-12-03T04:52:39.472Z,95618.39
2018-12-03T04:55:06.978Z,95625.29
2018-12-03T04:57:34.584Z,95623.38
2018-12-03T05:00:02.166Z,95626.33
2018-12-03T05:02:29.573Z,95616.74
2018-12-03T05:04:57.034Z,95621.95
2018-12-03T05:07:24.340Z,95631.69
2018-12-03T05:09:51.548Z,95627.89
2018-12-03T05:12:18.732Z,95633.37
2018-12-03T05:14:45.951Z,95629.00
2018-12-03T05:17:13.216Z,95640.73
2018-12-03T05:19:40.443Z,95641.77
2018-12-03T05:22:07.648Z,95643.79
2018-12-03T05:24:34.916Z,95636.20
2018-12-03T05:27:02.142Z,95641.87
2018-12-03T05:29:29.451Z,95641.42
2018-12-03T05:31:56.730Z,95640.70
2018-12-03T05:34:23.965Z,95647.45
2018-12-03T05:36:51.209Z,95657.81
2018-12-03T05:39:18.485Z,95662.06
2018-12-03T05:41:45.795Z,95665.88
2018-12-03T05:44:13.037Z,95672.39
2018-12-03T05:46:40.305Z,95669.94
2018-12-03T05:49:09.322Z,95666.09
2018-12-03T05:51:36.654Z,95668.94
2018-12-03T05:54:04.254Z,95665.75
2018-12-03T05:56:31.589Z,95661.95
2018-12-03T05:58:59.600Z,95649.31
2018-12-03T06:01:26.867Z,95646.55
2018-12-03T06:03:54.137Z,95641.99
2018-12-03T06:06:21.356Z,95662.66
2018-12-03T06:08:48.640Z,95662.31
2018-12-03T06:11:15.980Z,95667.00
2018-12-03T06:13:43.268Z,95674.22
2018-12-03T06:16:12.679Z,95667.58
2018-12-03T06:18:40.014Z,95665.55
2018-12-03T06:21:07.297Z,95660.70
2018-12-03T06:23:34.574Z,95659.52
2018-12-03T06:26:01.842Z,95661.64
2018-12-03T06:28:29.154Z,95663.17
2018-12-03T06:30:56.479Z,95660.56
2018-12-03T06:33:24.571Z,95655.17
2018-12-03T06:35:51.812Z,95630.59
2018-12-03T06:38:19.091Z,95663.23
2018-12-03T06:40:46.349Z,95656.13
2018-12-03T06:43:13.620Z,95655.91
2018-12-03T06:45:40.911Z,95656.64
2018-12-03T06:48:14.908Z,95662.82
2018-12-03T06:50:42.158Z,95667.52
2018-12-03T06:53:09.465Z,95683.06
2018-12-03T06:55:36.836Z,95666.41
2018-12-03T06:58:04.203Z,95685.25
2018-12-03T07:00:31.450Z,95676.12
2018-12-03T07:02:59.950Z,95680.18
2018-12-03T07:05:27.234Z,95678.99
2018-12-03T07:07:56.154Z,95677.57
2018-12-03T07:10:23.995Z,95687.89
2018-12-03T07:12:53.540Z,95686.94
2018-12-03T07:15:21.658Z,95683.75
2018-12-03T07:17:50.279Z,95687.31
2018-12-03T07:20:17.555Z,95691.00
2018-12-03T07:22:44.806Z,95686.31
2018-12-03T07:25:12.365Z,95687.50
2018-12-03T07:27:39.662Z,95685.35
2018-12-03T07:30:18.535Z,95686.00
2018-12-03T07:32:47.834Z,95692.40
2018-12-03T07:35:19.410Z,95700.59
2018-12-03T07:37:46.952Z,95699.06
2018-12-03T07:40:14.236Z,95689.59
2018-12-03T07:42:41.999Z,95678.00
2018-12-03T07:45:15.573Z,95694.71
2018-12-03T07:47:42.875Z,95701.11
2018-12-03T07:50:11.260Z,95700.26
2018-12-03T07:52:38.602Z,95707.28
2018-12-03T07:55:07.905Z,95701.37
2018-12-03T07:57:35.081Z,95705.02
2018-12-03T08:00:02.432Z,95702.76
2018-12-03T08:02:29.729Z,95706.79
2018-12-03T08:05:00.412Z,95694.11
2018-12-03T08:07:27.695Z,95705.72
2018-12-03T08:09:54.908Z,95699.15
2018-12-03T08:12:22.104Z,95695.87
2018-12-03T08:14:55.106Z,95692.45
2018-12-03T08:17:22.587Z,95694.28
2018-12-03T08:19:49.897Z,95693.94
2018-12-03T08:22:17.109Z,95689.44
2018-12-03T08:24:44.370Z,95693.50
2018-12-03T08:27:11.606Z,95696.83
2018-12-03T08:29:38.888Z,95691.38
2018-12-03T08:32:06.226Z,95692.48
2018-12-03T08:34:33.436Z,95694.13
2018-12-03T08:37:00.872Z,95692.92
2018-12-03T08:39:28.120Z,95697.06
2018-12-03T08:41:55.324Z,95690.17
2018-12-03T08:44:26.025Z,95696.57
2018-12-03T08:46:53.226Z,95680.08
2018-12-03T08:49:20.532Z,95682.92
2018-12-03T08:51:47.808Z,95682.20
2018-12-03T08:54:15.019Z,95686.31
2018-12-03T08:56:45.053Z,95692.45
2018-12-03T08:59:12.315Z,95700.55
2018-12-03T09:01:44.312Z,95687.72
2018-12-03T09:04:14.969Z,95698.97
2018-12-03T09:06:42.256Z,95694.91
2018-12-03T09:09:12.010Z,95689.73
2018-12-03T09:11:48.203Z,95692.88
2018-12-03T09:14:16.245Z,95705.46
2018-12-03T09:16:43.602Z,95706.65
2018-12-03T09:19:10.827Z,95709.26
2018-12-03T09:21:38.072Z,95701.58
2018-12-03T09:24:07.639Z,95702.27
2018-12-03T09:26:39.130Z,95706.65
2018-12-03T09:29:08.075Z,95707.75
2018-12-03T09:31:35.416Z,95714.77
2018-12-03T09:34:04.450Z,95716.65
2018-12-03T09:36:31.715Z,95713.08
2018-12-03T09:39:15.931Z,95714.39
2018-12-03T09:41:50.719Z,95714.16
2018-12-03T09:44:21.736Z,95712.88
2018-12-03T09:46:51.126Z,95708.36
2018-12-03T09:49:18.667Z,95699.70
2018-12-03T09:51:45.876Z,95697.81
2018-12-03T09:54:13.294Z,95694.59
2018-12-03T09:56:43.274Z,95693.88
2018-12-03T09:59:12.304Z,95689.00
2018-12-03T10:01:39.560Z,95687.08
2018-12-03T10:04:10.564Z,95677.57
2018-12-03T10:06:37.820Z,95674.13
2018-12-03T10:09:11.306Z,95657.50
2018-12-03T10:11:38.603Z,95656.39
2018-12-03T10:14:06.024Z,95645.06
2018-12-03T10:16:33.302Z,95638.92
2018-12-03T10:19:00.570Z,95637.95
2018-12-03T10:21:27.910Z,95634.85
2018-12-03T10:23:55.183Z,95631.16
2018-12-03T10:26:22.420Z,95623.45
2018-12-03T10:28:49.694Z,95614.47
2018-12-03T10:31:16.918Z,95614.03
2018-12-03T10:33:44.347Z,95608.30
2018-12-03T10:36:11.649Z,95618.45
2018-12-03T10:38:40.709Z,95614.94
2018-12-03T10:41:43.548Z,95606.98
2018-12-03T10:44:22.049Z,95605.97
2018-12-03T10:46:50.798Z,95595.50
2018-12-03T10:49:18.236Z,95588.41
2018-12-03T10:51:45.488Z,95581.11
2018-12-03T10:54:12.814Z,95582.47
2018-12-03T10:56:40.111Z,95588.20
2018-12-03T10:59:07.534Z,95581.80
2018-12-03T11:01:40.412Z,95582.88
2018-12-03T11:05:17.756Z,95579.61
2018-12-03T11:07:47.110Z,95581.70
2018-12-03T11:10:14.544Z,95583.53
2018-12-03T11:12:42.358Z,95580.23
2018-12-03T11:15:14.287Z,95581.70
2018-12-03T11:17:41.586Z,95577.09
2018-12-03T11:20:09.149Z,95580.89
2018-12-03T11:22:36.515Z,95572.98
2018-12-03T11:25:05.908Z,95572.22
2018-12-03T11:27:35.196Z,95534.38
2018-12-03T11:30:03.255Z,95575.02
2018-12-03T11:32:30.559Z,95577.16
2018-12-03T11:34:57.869Z,95576.56
2018-12-03T11:37:25.176Z,95571.94
2018-12-03T11:39:57.184Z,95574.77
2018-12-03T11:42:28.088Z,95584.38
2018-12-03T11:45:00.349Z,95568.36
2018-12-03T11:47:27.737Z,95571.44
2018-12-03T11:49:54.936Z,95563.97
2018-12-03T11:52:22.494Z,95561.20
2018-12-03T11:54:49.781Z,95568.29
2018-12-03T11:57:17.058Z,95557.03
2018-12-03T11:59:44.366Z,95556.75
2018-12-03T12:02:11.646Z,95564.93
2018-12-03T12:04:38.913Z,95551.61
2018-12-03T12:08:31.026Z,95545.83
2018-12-03T12:10:58.282Z,95533.65
2018-12-03T12:13:25.562Z,95528.14
2018-12-03T12:15:52.836Z,95523.55
2018-12-03T12:18:20.105Z,95522.92
2018-12-03T12:20:51.337Z,95507.33
2018-12-03T12:23:23.739Z,95500.09
2018-12-03T12:25:51.020Z,95510.89
2018-12-03T12:28:18.434Z,95517.02
2018-12-03T12:30:45.786Z,95519.37
2018-12-03T12:33:13.024Z,95526.03
2018-12-03T12:35:40.268Z,95526.03
2018-12-03T12:38:07.504Z,95513.80
2018-12-03T12:40:34.804Z,95519.16
2018-12-03T12:43:02.078Z,95522.11
2018-12-03T12:45:52.195Z,95509.92
2018-12-03T12:48:19.493Z,95514.14
2018-12-03T12:50:46.745Z,95526.98
2018-12-03T12:53:14.044Z,95529.61
2018-12-03T12:55:42.168Z,95520.75
2018-12-03T12:58:09.375Z,95521.63
2018-12-03T13:00:36.668Z,95532.45
2018-12-03T13:03:04.158Z,95517.07
2018-12-03T13:05:31.703Z,95530.00
2018-12-03T13:07:58.926Z,95514.71
2018-12-03T13:10:26.203Z,95517.50
2018-12-03T13:12:53.430Z,95513.09
2018-12-03T13:15:20.682Z,95507.53
2018-12-03T13:17:48.150Z,95509.02
2018-12-03T13:20:16.579Z,95500.50
2018-12-03T13:22:43.845Z,95501.19
2018-12-03T13:25:13.921Z,95502.50
2018-12-03T13:27:41.242Z,95500.95
2018-12-03T13:30:11.825Z,95499.64
2018-12-03T13:32:39.192Z,95508.33
2018-12-03T13:35:08.073Z,95499.20
2018-12-03T13:37:35.360Z,95496.50
2018-12-03T13:40:02.710Z,95491.44
2018-12-03T13:42:30.081Z,95482.14
2018-12-03T13:44:57.498Z,95471.80
2018-12-03T13:47:24.798Z,95467.33
2018-12-03T13:49:52.125Z,95465.37
2018-12-03T13:52:19.387Z,95469.56
2018-12-03T13:54:46.776Z,95483.30
2018-12-03T13:57:14.213Z,95449.08
2018-12-03T13:59:41.506Z,95477.81
2018-12-03T14:02:09.011Z,95479.55
2018-12-03T14:04:36.470Z,95470.28
2018-12-03T14:07:11.502Z,95481.63
2018-12-03T14:10:00.992Z,95481.34
2018-12-03T14:12:38.112Z,95489.27
2018-12-03T14:15:16.954Z,95500.17
2018-12-03T14:17:53.213Z,95504.25
2018-12-03T14:20:21.810Z,95501.27
2018-12-03T14:23:06.876Z,95495.30
2018-12-03T14:25:34.128Z,95491.59
2018-12-03T14:28:01.504Z,95503.29
2018-12-03T14:30:35.786Z,95495.11
2018-12-03T14:33:05.113Z,95481.22
2018-12-03T14:35:32.384Z,95489.17
2018-12-03T14:38:02.281Z,95475.31
2018-12-03T14:40:34.715Z,95475.45
2018-12-03T14:43:06.944Z,95481.23
2018-12-03T14:45:34.197Z,95482.80
2018-12-03T14:48:01.450Z,95488.10
2018-12-03T14:50:30.594Z,95471.41
2018-12-03T14:52:57.847Z,95478.12
2018-12-03T14:55:25.182Z,95474.70
2018-12-03T14:57:52.434Z,95474.48
2018-12-03T15:00:19.746Z,95467.75
2018-12-03T15:02:47.084Z,95477.52
2018-12-03T15:05:14.376Z,95466.39
2018-12-03T15:07:41.624Z,95464.92
2018-12-03T15:10:09.221Z,95456.06
2018-12-03T15:12:36.478Z,95450.42
2018-12-03T15:15:05.928Z,95452.44
2018-12-03T15:17:33.185Z,95448.43
2018-12-03T15:20:00.395Z,95435.92
2018-12-03T15:22:27.662Z,95427.19
2018-12-03T15:24:54.968Z,95423.06
2018-12-03T15:27:22.251Z,95400.55
2018-12-03T15:29:49.504Z,95447.84
2018-12-03T15:32:16.736Z,95459.65
2018-12-03T15:34:43.997Z,95465.55
2018-12-03T15:37:13.311Z,95462.59
2018-12-03T15:39:40.623Z,95467.05
2018-12-03T15:42:07.873Z,95469.47
2018-12-03T15:44:35.166Z,95467.23
2018-12-03T15:47:02.455Z,95465.73
2018-12-03T15:49:29.745Z,95463.38
2018-12-03T15:51:57.062Z,95462.70
2018-12-03T15:54:24.267Z,95452.78
2018-12-03T15:56:51.525Z,95457.44
2018-12-03T15:59:18.794Z,95454.20
2018-12-03T16:01:46.029Z,95449.17
2018-12-03T16:04:13.272Z,95457.80
2018-12-03T16:06:40.524Z,95458.88
2018-12-03T16:09:10.497Z,95463.91
2018-12-03T16:11:38.137Z,95453.94
2018-12-03T16:14:05.386Z,95438.30
2018-12-03T16:16:32.680Z,95425.54
2018-12-03T16:19:00.242Z,95429.78
2018-12-03T16:21:27.614Z,95418.30
2018-12-03T16:23:55.070Z,95412.73
2018-12-03T16:26:22.390Z,95421.80
2018-12-03T16:28:49.867Z,95418.81
2018-12-03T16:31:17.753Z,95429.00
2018-12-03T16:33:45.004Z,95315.98
2018-12-03T16:36:12.349Z,95418.41
2018-12-03T16:38:39.623Z,95418.28
2018-12-03T16:41:10.041Z,95411.61
2018-12-03T16:43:37.304Z,95411.33
2018-12-03T16:46:04.538Z,95417.63
2018-12-03T16:48:31.762Z,95406.85
2018-12-03T16:50:59.005Z,95398.59
2018-12-03T16:53:26.568Z,95411.28
2018-12-03T16:55:53.872Z,95390.42
2018-12-03T16:58:21.152Z,95391.85
2018-12-03T17:00:48.481Z,95383.47
2018-12-03T17:03:15.761Z,95379.44
2018-12-03T17:05:43.063Z,95373.48
2018-12-03T17:08:10.289Z,95373.76
2018-12-03T17:10:37.511Z,95375.99
2018-12-03T17:13:04.808Z,95374.33
2018-12-03T17:15:32.032Z,95371.91
2018-12-03T17:17:59.258Z,95375.97
2018-12-03T17:20:44.168Z,95372.36
2018-12-03T17:24:24.086Z,95374.00
2018-12-03T17:26:51.391Z,95359.73
2018-12-03T17:29:18.597Z,95356.25
2018-12-03T17:31:45.887Z,95348.23
2018-12-03T17:34:13.186Z,95354.23
2018-12-03T17:36:40.455Z,95345.83
2018-12-03T17:39:08.091Z,95341.58
2018-12-03T17:41:35.391Z,95330.78
2018-12-03T17:44:03.397Z,95334.50
2018-12-03T17:46:30.695Z,95333.61
2018-12-03T17:48:58.110Z,95330.09
2018-12-03T17:51:25.264Z,95328.80
2018-12-03T17:53:52.739Z,95332.36
2018-12-03T17:56:20.054Z,95333.41
2018-12-03T17:58:47.331Z,95331.49
2018-12-03T18:01:14.807Z,95326.28
2018-12-03T18:03:42.000Z,95325.95
2018-12-03T18:06:17.141Z,95323.74
2018-12-03T18:08:42.515Z,95327.43
2018-12-03T18:11:09.823Z,95335.97
2018-12-03T18:13:37.048Z,95335.69
2018-12-03T18:16:09.560Z,95334.82
2018-12-03T18:18:36.823Z,95334.27
2018-12-03T18:21:07.232Z,95336.25
2018-12-03T18:23:39.458Z,95341.24
2018-12-03T18:26:06.751Z,95345.21
2018-12-03T18:28:34.037Z,95338.81
2018-12-03T18:31:03.795Z,95334.23
2018-12-03T18:33:31.097Z,95346.23
2018-12-03T18:35:58.815Z,95344.31
2018-12-03T18:38:26.041Z,95337.57
2018-12-03T18:40:53.411Z,95338.01
2018-12-03T18:43:20.671Z,95338.28
2018-12-03T18:45:47.949Z,95329.28
2018-12-03T18:48:15.284Z,95309.05
2018-12-03T18:50:45.228Z,95331.82
2018-12-03T18:53:20.055Z,95322.14
2018-12-03T18:55:47.172Z,95317.39
2018-12-03T18:58:17.133Z,95316.78
2018-12-03T19:00:44.377Z,95325.55
2018-12-03T19:03:11.683Z,95331.26
2018-12-03T19:05:38.932Z,95356.97
2018-12-03T19:08:06.153Z,95363.27
2018-12-03T19:10:33.415Z,95362.36
2018-12-03T19:13:00.634Z,95363.66
2018-12-03T19:15:27.900Z,95375.62
2018-12-03T19:18:04.160Z,95391.98
2018-12-03T19:20:32.017Z,95416.59
2018-12-03T19:22:59.413Z,95419.01
2018-12-03T19:25:30.726Z,95435.48
2018-12-03T19:27:59.103Z,95442.25
2018-12-03T19:30:26.352Z,95463.20
2018-12-03T19:32:53.736Z,95470.34
2018-12-03T19:35:27.309Z,95479.31
2018-12-03T19:37:54.867Z,95495.08
2018-12-03T19:40:22.132Z,95501.94
2018-12-03T19:42:58.972Z,95494.23
2018-12-03T19:45:26.573Z,95513.53
2018-12-03T19:47:53.791Z,95508.12
2018-12-03T19:50:21.051Z,95515.45
2018-12-03T19:52:50.534Z,95533.69
2018-12-03T19:55:59.453Z,95543.28
2018-12-03T19:58:25.421Z,95535.95
2018-12-03T20:00:51.301Z,95543.54
2018-12-03T20:03:17.224Z,95541.16
2018-12-03T20:05:43.123Z,95540.70
2018-12-03T20:08:08.990Z,95519.88
2018-12-03T20:10:34.930Z,95561.05
2018-12-03T20:13:00.789Z,95575.83
2018-12-03T20:15:26.695Z,95580.68
2018-12-03T20:17:52.591Z,95588.84
2018-12-03T20:20:18.468Z,95588.72
2018-12-03T20:22:44.361Z,95601.60
2018-12-03T20:25:10.918Z,95609.66
2018-12-03T20:27:36.817Z,95621.71
2018-12-03T20:30:06.694Z,95635.42
2018-12-03T20:32:32.607Z,95649.73
2018-12-03T20:34:58.499Z,95654.83
2018-12-03T20:37:26.351Z,95673.84
2018-12-03T20:39:56.497Z,95683.05
2018-12-03T20:42:22.722Z,95678.44
2018-12-03T20:44:52.211Z,95679.39
2018-12-03T20:47:18.817Z,95675.70
2018-12-03T20:49:44.812Z,95688.14
2018-12-03T20:52:10.730Z,95689.09
2018-12-03T20:54:36.640Z,95704.80
2018-12-03T20:57:02.574Z,95704.20
2018-12-03T20:59:28.441Z,95710.80
2018-12-03T21:01:54.348Z,95718.99
2018-12-03T21:04:21.105Z,95721.25
2018-12-03T21:06:47.000Z,95733.30
2018-12-03T21:09:12.961Z,95741.45
2018-12-03T21:11:38.919Z,95745.47
2018-12-03T21:14:04.802Z,95743.72
2018-12-03T21:16:30.724Z,95753.67
2018-12-03T21:18:56.643Z,95760.06
2018-12-03T21:21:22.487Z,95769.88
2018-12-03T21:23:48.396Z,95775.33
2018-12-03T21:26:14.263Z,95779.83
2018-12-03T21:28:40.282Z,95777.58
2018-12-03T21:31:06.173Z,95791.04
2018-12-03T21:33:32.119Z,95794.93
2018-12-03T21:35:57.990Z,95803.89
2018-12-03T21:38:24.992Z,95807.54
2018-12-03T21:40:50.914Z,95833.19
2018-12-03T21:43:18.698Z,95832.48
2018-12-03T21:45:44.614Z,95831.42
2018-12-03T21:48:14.538Z,95842.04
2018-12-03T21:50:40.413Z,95841.09
2018-12-03T21:53:06.349Z,95850.70
2018-12-03T21:55:32.278Z,95842.11
2018-12-03T21:57:58.154Z,95841.27
2018-12-03T22:00:25.836Z,95843.05
2018-12-03T22:02:51.731Z,95851.46
2018-12-03T22:05:20.676Z,95850.62
2018-12-03T22:07:46.574Z,95849.11
2018-12-03T22:10:16.190Z,95846.26
2018-12-03T22:12:42.096Z,95834.83
2018-12-03T22:15:09.864Z,95863.88
2018-12-03T22:17:35.760Z,95857.27
2018-12-03T22:20:05.455Z,95870.13
2018-12-03T22:22:31.354Z,95881.85
2018-12-03T22:25:00.445Z,95885.30
2018-12-03T22:27:26.395Z,95889.30
2018-12-03T22:29:52.335Z,95903.36
2018-12-03T22:32:18.190Z,95904.89
2018-12-03T22:34:44.083Z,95911.24
2018-12-03T22:37:10.595Z,95904.72
2018-12-03T22:39:36.471Z,95903.22
2018-12-03T22:42:05.178Z,95889.59
2018-12-03T22:44:31.070Z,95893.72
2018-12-03T22:46:59.917Z,95904.02
2018-12-03T22:49:25.819Z,95903.77
2018-12-03T22:51:55.088Z,95901.68
2018-12-03T22:54:20.981Z,95905.91
2018-12-03T22:56:49.497Z,95905.07
2018-12-03T22:59:15.397Z,95896.48
2018-12-03T23:01:45.212Z,95901.33
2018-12-03T23:04:11.132Z,95906.98
2018-12-03T23:06:37.021Z,95910.88
2018-12-03T23:09:05.129Z,95910.78
2018-12-03T23:11:31.020Z,95920.12
2018-12-03T23:13:56.943Z,95914.53
2018-12-03T23:16:22.924Z,95912.88
2018-12-03T23:18:52.026Z,95919.86
2018-12-03T23:21:17.908Z,95929.52
2018-12-03T23:23:45.685Z,95933.30
2018-12-03T23:26:11.533Z,95923.23
2018-12-03T23:28:41.469Z,95922.52
2018-12-03T23:31:07.628Z,95922.13
2018-12-03T23:33:35.800Z,95924.95
2018-12-03T23:36:01.925Z,95926.72
2018-12-03T23:38:31.050Z,95931.55
2018-12-03T23:40:56.924Z,95934.16
2018-12-03T23:43:28.747Z,95935.00
2018-12-03T23:45:55.137Z,95942.03
2018-12-03T23:48:21.033Z,95949.38
2018-12-03T23:50:46.908Z,95944.63
2018-12-03T23:53:12.801Z,95943.69
2018-12-03T23:55:38.687Z,95954.25
2018-12-03T23:58:04.603Z,95950.60
